createdAt,value
2022-10-24T00:01:23.807Z,7.57
2022-10-24T00:03:51.754Z,7.57
2022-10-24T00:06:20.684Z,7.07
2022-10-24T00:08:48.430Z,8.10
2022-10-24T00:11:27.751Z,8.53
2022-10-24T00:13:57.197Z,8.30
2022-10-24T00:16:24.686Z,9.13
2022-10-24T00:18:51.859Z,5.70
2022-10-24T00:21:19.891Z,7.37
2022-10-24T00:23:47.662Z,10.77
2022-10-24T00:26:16.676Z,6.90
2022-10-24T00:28:44.060Z,9.70
2022-10-24T00:31:17.499Z,9.10
2022-10-24T00:33:45.561Z,10.43
2022-10-24T00:36:21.077Z,10.53
2022-10-24T00:38:52.279Z,8.73
2022-10-24T00:41:26.412Z,8.60
2022-10-24T00:44:25.963Z,9.80
2022-10-24T00:47:19.512Z,9.47
2022-10-24T00:50:14.790Z,9.10
2022-10-24T00:52:47.064Z,10.17
2022-10-24T00:55:15.499Z,10.10
2022-10-24T00:57:53.379Z,9.60
2022-10-24T01:00:27.509Z,10.43
2022-10-24T01:02:54.943Z,11.17
2022-10-24T01:05:30.137Z,10.07
2022-10-24T01:08:54.203Z,9.63
2022-10-24T01:12:29.982Z,9.90
2022-10-24T01:15:19.294Z,9.70
2022-10-24T01:18:20.517Z,9.13
2022-10-24T01:21:12.326Z,8.60
2022-10-24T01:24:32.693Z,9.83
2022-10-24T01:27:32.306Z,9.87
2022-10-24T01:30:14.063Z,9.50
2022-10-24T01:33:11.567Z,10.73
2022-10-24T01:36:03.079Z,11.57
2022-10-24T01:39:05.988Z,10.07
2022-10-24T01:41:33.833Z,11.03
2022-10-24T01:44:10.457Z,12.30
2022-10-24T01:46:55.624Z,9.57
2022-10-24T01:49:29.495Z,7.90
2022-10-24T01:52:01.414Z,9.17
2022-10-24T01:54:29.975Z,9.30
2022-10-24T01:56:56.993Z,7.67
2022-10-24T01:59:28.252Z,9.37
2022-10-24T02:02:37.562Z,10.03
2022-10-24T02:05:12.568Z,9.47
2022-10-24T02:07:43.262Z,11.60
2022-10-24T02:10:30.800Z,11.30
2022-10-24T02:13:19.081Z,12.53
2022-10-24T02:15:53.499Z,11.97
2022-10-24T02:18:20.591Z,11.47
2022-10-24T02:21:23.730Z,12.23
2022-10-24T02:24:15.238Z,10.43
2022-10-24T02:27:21.727Z,10.50
2022-10-24T02:30:14.083Z,9.70
2022-10-24T02:32:52.431Z,9.97
2022-10-24T02:35:27.010Z,12.77
2022-10-24T02:38:07.327Z,14.07
2022-10-24T02:40:35.611Z,11.80
2022-10-24T02:43:04.850Z,12.40
2022-10-24T02:45:34.539Z,12.63
2022-10-24T02:48:06.803Z,9.53
2022-10-24T02:50:34.918Z,14.80
2022-10-24T02:53:01.862Z,7.23
2022-10-24T02:55:29.029Z,9.03
2022-10-24T02:57:55.962Z,10.60
2022-10-24T03:00:22.905Z,6.23
2022-10-24T03:02:49.808Z,11.33
2022-10-24T03:05:16.872Z,12.00
2022-10-24T03:07:43.914Z,9.10
2022-10-24T03:10:10.923Z,8.60
2022-10-24T03:12:37.912Z,6.70
2022-10-24T03:15:06.017Z,6.60
2022-10-24T03:17:32.991Z,5.43
2022-10-24T03:19:59.920Z,6.70
2022-10-24T03:22:30.605Z,16.60
2022-10-24T03:25:01.680Z,6.20
2022-10-24T03:27:29.971Z,10.40
2022-10-24T03:29:56.966Z,10.03
2022-10-24T03:32:24.030Z,5.27
2022-10-24T03:34:50.968Z,14.47
2022-10-24T03:37:18.349Z,7.23
2022-10-24T03:39:45.540Z,13.80
2022-10-24T03:42:12.655Z,11.30
2022-10-24T03:44:39.587Z,12.73
2022-10-24T03:47:06.694Z,10.80
2022-10-24T03:49:33.707Z,7.67
2022-10-24T03:52:00.769Z,13.53
2022-10-24T03:54:27.796Z,10.07
2022-10-24T03:56:54.722Z,10.97
2022-10-24T03:59:24.790Z,9.20
2022-10-24T04:01:51.872Z,7.70
2022-10-24T04:04:18.872Z,7.60
2022-10-24T04:06:45.847Z,7.73
2022-10-24T04:09:13.015Z,10.00
2022-10-24T04:11:40.111Z,8.67
2022-10-24T04:14:07.879Z,8.83
2022-10-24T04:16:35.317Z,8.57
2022-10-24T04:19:02.716Z,8.47
2022-10-24T04:21:29.887Z,8.20
2022-10-24T04:23:57.913Z,5.87
2022-10-24T04:26:25.142Z,7.83
2022-10-24T04:28:52.100Z,6.33
2022-10-24T04:31:22.535Z,7.57
2022-10-24T04:33:50.864Z,7.83
2022-10-24T04:36:18.038Z,7.37
2022-10-24T04:38:44.983Z,6.87
2022-10-24T04:41:12.410Z,6.33
2022-10-24T04:43:40.279Z,7.57
2022-10-24T04:46:08.084Z,7.90
2022-10-24T04:48:35.660Z,6.03
2022-10-24T04:51:02.634Z,8.07
2022-10-24T04:53:29.985Z,6.07
2022-10-24T04:55:57.205Z,7.50
2022-10-24T04:58:24.184Z,8.23
2022-10-24T05:00:51.109Z,9.00
2022-10-24T05:03:19.385Z,6.90
2022-10-24T05:05:47.636Z,6.87
2022-10-24T05:08:15.098Z,6.83
2022-10-24T05:10:42.628Z,6.40
2022-10-24T05:13:10.026Z,9.67
2022-10-24T05:15:37.581Z,7.13
2022-10-24T05:18:05.109Z,9.47
2022-10-24T05:20:32.550Z,10.43
2022-10-24T05:22:59.554Z,8.33
2022-10-24T05:25:27.332Z,9.40
2022-10-24T05:27:54.321Z,8.93
2022-10-24T05:30:21.525Z,9.63
2022-10-24T05:32:48.505Z,9.20
2022-10-24T05:35:15.692Z,8.73
2022-10-24T05:37:43.958Z,7.27
2022-10-24T05:40:12.903Z,7.33
2022-10-24T05:42:40.262Z,7.57
2022-10-24T05:45:10.085Z,8.07
2022-10-24T05:47:38.278Z,7.90
2022-10-24T05:50:07.004Z,8.10
2022-10-24T05:52:36.438Z,8.23
2022-10-24T05:55:08.832Z,8.83
2022-10-24T05:57:38.051Z,6.70
2022-10-24T06:00:14.355Z,7.50
2022-10-24T06:02:42.356Z,5.90
2022-10-24T06:05:10.921Z,7.37
2022-10-24T06:07:41.476Z,7.70
2022-10-24T06:10:11.485Z,7.17
2022-10-24T06:12:39.094Z,8.47
2022-10-24T06:15:09.040Z,7.20
2022-10-24T06:17:36.423Z,5.50
2022-10-24T06:20:04.939Z,7.20
2022-10-24T06:22:31.970Z,6.83
2022-10-24T06:24:59.999Z,5.47
2022-10-24T06:27:27.439Z,6.23
2022-10-24T06:29:54.384Z,8.40
2022-10-24T06:32:21.421Z,7.87
2022-10-24T06:34:48.435Z,7.20
2022-10-24T06:37:15.509Z,6.47
2022-10-24T06:39:42.471Z,7.87
2022-10-24T06:42:09.591Z,8.00
2022-10-24T06:44:36.708Z,8.57
2022-10-24T06:47:03.745Z,7.87
2022-10-24T06:49:30.898Z,5.90
2022-10-24T06:51:58.074Z,6.77
2022-10-24T06:54:27.746Z,5.77
2022-10-24T06:56:57.520Z,6.57
2022-10-24T06:59:24.582Z,5.87
2022-10-24T07:01:52.128Z,5.10
2022-10-24T07:04:19.375Z,6.57
2022-10-24T07:06:46.438Z,6.80
2022-10-24T07:09:15.428Z,7.37
2022-10-24T07:11:47.784Z,6.63
2022-10-24T07:14:14.724Z,5.77
2022-10-24T07:16:41.884Z,6.40
2022-10-24T07:19:08.889Z,5.80
2022-10-24T07:21:35.946Z,5.80
2022-10-24T07:24:04.353Z,6.17
2022-10-24T07:26:31.962Z,5.50
2022-10-24T07:31:37.141Z,5.70
2022-10-24T07:34:08.125Z,6.73
2022-10-24T07:36:41.386Z,5.83
2022-10-24T07:39:10.145Z,5.63
2022-10-24T07:41:41.248Z,4.50
2022-10-24T07:44:10.276Z,5.60
2022-10-24T07:46:38.496Z,6.60
2022-10-24T07:49:05.503Z,5.10
2022-10-24T07:51:32.424Z,5.23
2022-10-24T07:53:59.477Z,5.83
2022-10-24T07:56:26.733Z,4.47
2022-10-24T07:58:56.003Z,4.77
2022-10-24T08:01:29.318Z,4.87
2022-10-24T08:03:57.677Z,4.53
2022-10-24T08:06:31.177Z,3.93
2022-10-24T08:08:58.506Z,3.90
2022-10-24T08:11:28.951Z,3.40
2022-10-24T08:13:57.285Z,3.80
2022-10-24T08:16:26.211Z,3.87
2022-10-24T08:18:56.516Z,3.37
2022-10-24T08:21:25.383Z,2.67
2022-10-24T08:23:55.354Z,3.27
2022-10-24T08:26:25.308Z,2.70
2022-10-24T08:28:55.393Z,3.50
2022-10-24T08:31:26.070Z,3.03
2022-10-24T08:33:55.764Z,3.30
2022-10-24T08:36:28.898Z,3.60
2022-10-24T08:38:56.340Z,2.87
2022-10-24T08:41:46.708Z,2.87
2022-10-24T08:44:44.024Z,3.27
2022-10-24T08:48:06.748Z,3.00
2022-10-24T08:50:36.619Z,3.00
2022-10-24T08:53:31.551Z,3.10
2022-10-24T08:56:01.401Z,2.70
2022-10-24T08:58:46.580Z,3.27
2022-10-24T09:01:30.328Z,2.90
2022-10-24T09:04:04.805Z,3.17
2022-10-24T09:06:33.592Z,2.75
2022-10-24T09:09:19.624Z,3.30
2022-10-24T09:12:13.413Z,3.30
2022-10-24T09:14:44.444Z,2.72
2022-10-24T09:17:33.817Z,2.75
2022-10-24T09:20:32.620Z,2.28
2022-10-24T09:23:05.623Z,2.92
2022-10-24T09:25:40.567Z,2.33
2022-10-24T09:28:07.701Z,2.33
2022-10-24T09:30:37.484Z,2.85
2022-10-24T09:33:35.428Z,2.47
2022-10-24T09:36:05.849Z,2.92
2022-10-24T09:38:36.883Z,4.38
2022-10-24T09:41:29.657Z,2.50
2022-10-24T09:44:02.088Z,2.13
2022-10-24T09:46:44.989Z,2.33
2022-10-24T09:49:22.618Z,2.10
2022-10-24T09:52:25.579Z,2.90
2022-10-24T09:55:28.750Z,2.60
2022-10-24T09:58:00.148Z,2.28
2022-10-24T10:00:35.781Z,2.20
2022-10-24T10:03:23.796Z,2.20
2022-10-24T10:05:54.503Z,2.20
2022-10-24T10:08:35.510Z,2.30
2022-10-24T10:11:12.252Z,2.92
2022-10-24T10:13:55.252Z,2.72
2022-10-24T10:16:38.425Z,2.30
2022-10-24T10:19:21.070Z,2.63
2022-10-24T10:22:03.320Z,2.13
2022-10-24T10:24:35.997Z,2.50
2022-10-24T10:27:36.722Z,2.78
2022-10-24T10:30:14.702Z,4.30
2022-10-24T10:33:39.065Z,2.95
2022-10-24T10:36:31.175Z,2.50
2022-10-24T10:39:45.761Z,1.90
2022-10-24T10:42:49.168Z,1.90
2022-10-24T10:46:05.453Z,1.95
2022-10-24T10:49:15.575Z,2.60
2022-10-24T10:52:27.458Z,2.88
2022-10-24T10:55:29.765Z,2.10
2022-10-24T10:58:32.805Z,2.03
2022-10-24T11:01:39.528Z,1.80
2022-10-24T11:05:04.594Z,3.15
2022-10-24T11:07:40.555Z,2.08
2022-10-24T11:10:16.597Z,2.85
2022-10-24T11:12:45.473Z,2.00
2022-10-24T11:15:37.182Z,2.10
2022-10-24T11:18:29.454Z,3.05
2022-10-24T11:21:13.982Z,2.30
2022-10-24T11:24:13.592Z,2.45
2022-10-24T11:27:06.534Z,2.28
2022-10-24T11:29:50.946Z,2.60
2022-10-24T11:32:42.726Z,2.30
2022-10-24T11:35:37.170Z,2.10
2022-10-24T11:38:18.854Z,2.95
2022-10-24T11:40:54.880Z,2.20
2022-10-24T11:43:36.464Z,2.20
2022-10-24T11:46:26.271Z,2.00
2022-10-24T11:49:11.839Z,2.55
2022-10-24T11:52:01.666Z,1.70
2022-10-24T11:55:01.483Z,1.88
2022-10-24T11:57:31.506Z,1.80
2022-10-24T11:59:59.533Z,1.80
2022-10-24T12:03:19.130Z,2.13
2022-10-24T12:06:22.710Z,1.55
2022-10-24T12:09:44.902Z,1.67
2022-10-24T12:12:57.796Z,1.52
2022-10-24T12:15:39.110Z,1.80
2022-10-24T12:18:26.441Z,1.75
2022-10-24T12:20:56.828Z,2.15
2022-10-24T12:23:31.499Z,1.50
2022-10-24T12:26:18.487Z,1.70
2022-10-24T12:29:07.715Z,1.67
2022-10-24T12:31:38.310Z,2.05
2022-10-24T12:34:20.590Z,1.88
2022-10-24T12:37:31.551Z,2.13
2022-10-24T12:39:59.011Z,1.40
2022-10-24T12:42:26.059Z,1.85
2022-10-24T12:45:23.355Z,1.80
2022-10-24T12:47:53.192Z,2.00
2022-10-24T12:50:22.852Z,1.90
2022-10-24T12:53:34.669Z,2.15
2022-10-24T12:56:14.612Z,2.25
2022-10-24T12:58:45.325Z,1.83
2022-10-24T13:01:35.222Z,1.83
2022-10-24T13:05:05.473Z,2.45
2022-10-24T13:08:20.064Z,2.22
2022-10-24T13:11:00.929Z,1.80
2022-10-24T13:14:00.600Z,1.80
2022-10-24T13:16:58.996Z,1.70
2022-10-24T13:19:27.390Z,2.08
2022-10-24T13:21:59.672Z,1.77
2022-10-24T13:24:40.476Z,1.80
2022-10-24T13:27:12.546Z,1.77
2022-10-24T13:29:39.832Z,1.70
2022-10-24T13:32:07.084Z,1.80
2022-10-24T13:34:54.790Z,2.67
2022-10-24T13:37:50.905Z,1.50
2022-10-24T13:40:34.055Z,2.03
2022-10-24T13:43:14.165Z,2.25
2022-10-24T13:46:19.757Z,2.03
2022-10-24T13:48:49.237Z,1.45
2022-10-24T13:51:46.577Z,1.70
2022-10-24T13:54:33.576Z,2.10
2022-10-24T13:57:02.259Z,2.25
2022-10-24T13:59:37.293Z,2.08
2022-10-24T14:02:18.803Z,1.42
2022-10-24T14:04:48.675Z,1.90
2022-10-24T14:07:33.565Z,1.63
2022-10-24T14:10:11.315Z,1.80
2022-10-24T14:12:41.183Z,1.50
2022-10-24T14:15:23.068Z,1.58
2022-10-24T14:18:14.235Z,1.88
2022-10-24T14:20:43.117Z,1.65
2022-10-24T14:23:39.881Z,1.33
2022-10-24T14:26:20.633Z,1.70
2022-10-24T14:28:59.920Z,1.58
2022-10-24T14:31:34.662Z,1.80
2022-10-24T14:34:05.998Z,1.88
2022-10-24T14:36:37.717Z,1.77
2022-10-24T14:39:06.209Z,2.17
2022-10-24T14:41:40.688Z,1.60
2022-10-24T14:44:11.919Z,1.90
2022-10-24T14:46:42.458Z,1.77
2022-10-24T14:49:27.509Z,1.50
2022-10-24T14:52:16.793Z,2.00
2022-10-24T14:55:04.294Z,2.03
2022-10-24T14:57:35.227Z,1.95
2022-10-24T15:00:08.819Z,2.25
2022-10-24T15:02:43.089Z,1.83
2022-10-24T15:05:22.797Z,2.50
2022-10-24T15:08:21.728Z,2.60
2022-10-24T15:10:50.064Z,2.67
2022-10-24T15:13:21.541Z,2.45
2022-10-24T15:15:57.627Z,2.30
2022-10-24T15:18:43.509Z,2.20
2022-10-24T15:21:22.294Z,2.15
2022-10-24T15:23:59.856Z,2.15
2022-10-24T15:26:40.408Z,2.35
2022-10-24T15:29:23.182Z,1.77
2022-10-24T15:31:52.004Z,2.28
2022-10-24T15:34:23.976Z,1.98
2022-10-24T15:36:53.588Z,2.50
2022-10-24T15:39:25.525Z,2.22
2022-10-24T15:41:53.624Z,2.10
2022-10-24T15:44:30.178Z,1.98
2022-10-24T15:46:57.313Z,1.83
2022-10-24T15:49:24.339Z,2.00
2022-10-24T15:51:51.632Z,2.17
2022-10-24T15:54:22.658Z,2.17
2022-10-24T15:56:50.440Z,2.20
2022-10-24T15:59:20.352Z,2.33
2022-10-24T16:02:05.346Z,2.17
2022-10-24T16:04:33.326Z,2.47
2022-10-24T16:07:01.542Z,2.08
2022-10-24T16:09:28.562Z,2.08
2022-10-24T16:11:55.550Z,2.72
2022-10-24T16:14:27.172Z,1.92
2022-10-24T16:16:55.201Z,2.13
2022-10-24T16:19:26.333Z,1.67
2022-10-24T16:21:58.885Z,2.00
2022-10-24T16:24:28.003Z,1.77
2022-10-24T16:26:55.113Z,2.33
2022-10-24T16:29:22.051Z,2.25
2022-10-24T16:31:50.825Z,2.15
2022-10-24T16:34:17.898Z,8.73
2022-10-24T16:36:44.901Z,1.90
2022-10-24T16:39:14.345Z,1.98
2022-10-24T16:41:45.765Z,1.70
2022-10-24T16:44:14.393Z,1.67
2022-10-24T16:46:47.098Z,2.17
2022-10-24T16:49:14.177Z,2.17
2022-10-24T16:51:43.999Z,2.50
2022-10-24T16:54:11.269Z,1.88
2022-10-24T16:56:38.216Z,2.17
2022-10-24T16:59:05.188Z,1.90
2022-10-24T17:01:32.431Z,2.20
2022-10-24T17:04:00.529Z,2.00
2022-10-24T17:06:27.511Z,1.75
2022-10-24T17:08:54.477Z,2.13
2022-10-24T17:11:43.713Z,1.90
2022-10-24T17:16:42.224Z,1.92
2022-10-24T17:19:16.044Z,2.13
2022-10-24T17:21:48.210Z,1.83
2022-10-24T17:24:24.370Z,1.87
2022-10-24T17:26:52.628Z,1.70
2022-10-24T17:29:31.737Z,1.77
2022-10-24T17:32:03.445Z,1.70
2022-10-24T17:34:30.685Z,1.73
2022-10-24T17:37:22.221Z,2.05
2022-10-24T17:40:02.803Z,1.70
2022-10-24T17:42:29.939Z,1.45
2022-10-24T17:44:57.036Z,1.30
2022-10-24T17:47:24.091Z,1.35
2022-10-24T17:49:51.022Z,1.77
2022-10-24T17:52:23.169Z,1.80
2022-10-24T17:54:50.997Z,1.23
2022-10-24T17:57:17.928Z,1.77
2022-10-24T17:59:45.409Z,1.40
2022-10-24T18:02:14.369Z,1.90
2022-10-24T18:04:42.909Z,1.50
2022-10-24T18:07:10.251Z,1.08
2022-10-24T18:09:39.957Z,1.60
2022-10-24T18:12:07.165Z,1.40
2022-10-24T18:14:37.425Z,1.30
2022-10-24T18:17:04.533Z,1.60
2022-10-24T18:19:31.626Z,1.40
2022-10-24T18:21:58.553Z,1.63
2022-10-24T18:24:25.548Z,1.33
2022-10-24T18:26:52.468Z,1.53
2022-10-24T18:29:19.421Z,1.70
2022-10-24T18:31:46.407Z,1.10
2022-10-24T18:34:13.360Z,1.47
2022-10-24T18:36:40.308Z,1.50
2022-10-24T18:39:07.292Z,1.57
2022-10-24T18:41:54.537Z,1.93
2022-10-24T18:44:33.491Z,1.57
2022-10-24T18:47:06.802Z,1.40
2022-10-24T18:49:35.469Z,1.63
2022-10-24T18:52:18.376Z,1.23
2022-10-24T18:55:04.235Z,2.00
2022-10-24T18:57:34.467Z,1.67
2022-10-24T19:00:01.596Z,1.43
2022-10-24T19:02:38.499Z,2.33
2022-10-24T19:05:20.240Z,1.60
2022-10-24T19:07:48.216Z,1.67
2022-10-24T19:10:24.144Z,1.67
2022-10-24T19:12:52.381Z,1.30
2022-10-24T19:15:19.955Z,1.40
2022-10-24T19:17:49.049Z,1.53
2022-10-24T19:20:23.411Z,1.47
2022-10-24T19:22:51.264Z,1.47
2022-10-24T19:25:18.943Z,1.63
2022-10-24T19:27:45.957Z,1.52
2022-10-24T19:30:13.505Z,1.40
2022-10-24T19:32:40.440Z,1.50
2022-10-24T19:35:07.959Z,1.27
2022-10-24T19:37:36.939Z,1.70
2022-10-24T19:40:05.399Z,1.50
2022-10-24T19:42:34.491Z,1.83
2022-10-24T19:45:02.085Z,1.43
2022-10-24T19:47:29.012Z,1.70
2022-10-24T19:49:56.013Z,2.03
2022-10-24T19:52:23.053Z,1.53
2022-10-24T19:54:50.025Z,1.77
2022-10-24T19:57:17.196Z,1.50
2022-10-24T19:59:44.210Z,1.67
2022-10-24T20:02:13.790Z,1.60
2022-10-24T20:04:41.390Z,1.73
2022-10-24T20:07:09.444Z,1.73
2022-10-24T20:09:37.071Z,1.43
2022-10-24T20:12:04.985Z,1.40
2022-10-24T20:14:32.002Z,1.30
2022-10-24T20:16:58.907Z,1.63
2022-10-24T20:19:25.897Z,1.50
2022-10-24T20:21:52.904Z,1.40
2022-10-24T20:24:20.049Z,1.67
2022-10-24T20:26:46.960Z,1.73
2022-10-24T20:29:15.148Z,1.50
2022-10-24T20:31:46.870Z,1.83
2022-10-24T20:34:15.283Z,1.70
2022-10-24T20:36:47.144Z,1.70
2022-10-24T20:39:20.898Z,1.70
2022-10-24T20:41:51.767Z,1.80
2022-10-24T20:44:21.201Z,1.60
2022-10-24T20:46:48.105Z,2.07
2022-10-24T20:49:15.119Z,1.90
2022-10-24T20:51:43.058Z,1.90
2022-10-24T20:54:10.985Z,2.53
2022-10-24T20:56:42.206Z,1.80
2022-10-24T20:59:11.807Z,1.77
2022-10-24T21:01:38.835Z,1.70
2022-10-24T21:04:05.903Z,1.70
2022-10-24T21:06:34.130Z,1.97
2022-10-24T21:09:04.962Z,2.00
2022-10-24T21:11:33.721Z,1.40
2022-10-24T21:14:07.292Z,1.93
2022-10-24T21:16:34.855Z,1.77
2022-10-24T21:19:02.223Z,1.73
2022-10-24T21:21:29.422Z,1.50
2022-10-24T21:24:03.943Z,1.90
2022-10-24T21:26:38.436Z,1.83
2022-10-24T21:29:31.607Z,1.57
2022-10-24T21:31:54.120Z,1.73
2022-10-24T21:34:22.067Z,1.93
2022-10-24T21:36:49.167Z,2.50
2022-10-24T21:39:17.331Z,1.93
2022-10-24T21:41:44.813Z,1.73
2022-10-24T21:44:12.362Z,1.80
2022-10-24T21:46:40.047Z,2.10
2022-10-24T21:49:06.964Z,1.77
2022-10-24T21:51:37.566Z,2.37
2022-10-24T21:54:23.538Z,1.80
2022-10-24T21:56:50.860Z,2.40
2022-10-24T21:59:20.742Z,1.90
2022-10-24T22:01:50.786Z,2.07
2022-10-24T22:04:18.885Z,2.20
2022-10-24T22:06:46.821Z,2.00
2022-10-24T22:09:21.281Z,1.50
2022-10-24T22:11:48.614Z,1.93
2022-10-24T22:14:17.838Z,2.00
2022-10-24T22:16:45.547Z,2.37
2022-10-24T22:19:14.389Z,2.00
2022-10-24T22:21:46.469Z,1.93
2022-10-24T22:24:21.500Z,2.00
2022-10-24T22:26:49.995Z,1.90
2022-10-24T22:29:21.527Z,1.70
2022-10-24T22:31:51.897Z,2.00
2022-10-24T22:34:25.334Z,2.30
2022-10-24T22:37:27.396Z,2.00
2022-10-24T22:39:54.617Z,2.43
2022-10-24T22:42:21.740Z,2.10
2022-10-24T22:44:50.812Z,2.17
2022-10-24T22:48:04.909Z,2.40
2022-10-24T22:50:56.436Z,2.27
2022-10-24T22:53:30.668Z,2.30
2022-10-24T22:56:33.258Z,1.77
2022-10-24T22:59:01.556Z,1.77
2022-10-24T23:01:57.877Z,2.17
2022-10-24T23:04:46.579Z,2.00
2022-10-24T23:08:03.161Z,1.77
2022-10-24T23:10:30.182Z,2.00
2022-10-24T23:12:57.504Z,2.27
2022-10-24T23:15:24.961Z,2.37
2022-10-24T23:17:52.492Z,2.30
2022-10-24T23:20:43.904Z,2.10
2022-10-24T23:23:28.753Z,2.20
2022-10-24T23:26:18.662Z,2.43
2022-10-24T23:29:27.983Z,2.50
2022-10-24T23:31:55.502Z,2.60
2022-10-24T23:34:23.027Z,2.30
2022-10-24T23:36:52.640Z,2.13
2022-10-24T23:41:48.499Z,2.43
2022-10-24T23:44:16.087Z,2.30
2022-10-24T23:47:11.170Z,2.57
2022-10-24T23:50:15.056Z,2.67
2022-10-24T23:53:05.670Z,3.10
2022-10-24T23:55:33.062Z,2.80
2022-10-24T23:58:01.082Z,2.93
